]idnight River — HP7399 — position and weather

sailwx.info

Track history (hours):
 
Tides and Currents Weather Stations Pressure Air Temp Water Temp Dewpoint Dewpoint Depression Visibility Wind Speed Wind Dir Waves Ship Positions

]idnight River

Last reported at 2015-Jul-07 21:29 UTC. Time now 2015-Jul-07 21:56 UTC.
Position N 18°05' W 063°05'.

; draft 9 m.

Type: Ship. MMSI: 352319000.

Date/timePositionNaut miles runAvg speedWind from/ knotsBaromVisibWave heightAir tempDewpointWater temp
2015-Jul-07 21:29N 18°05' W 063°05'0 0.0
2015-Jul-07 20:29N 18°05' W 063°05'0 0.0
2015-Jul-07 19:33N 18°05' W 063°05'0 0.2
2015-Jul-07 18:32N 18°05' W 063°05'2 0.2
2015-Jul-07 11:24N 18°06' W 063°05'2 1.7
2015-Jul-07 10:31N 18°05' W 063°05'7 7.4
2015-Jul-07 09:33N 18°07' W 063°12'10 9.7
2015-Jul-07 08:34N 18°09' W 063°22'64 9.1
2015-Jul-07 01:27N 18°24' W 064°28'7 8.0
2015-Jul-07 00:34N 18°22' W 064°35'0 0.1
2015-Jul-06 23:33N 18°22' W 064°35'3 0.1
2015-Jul-05 08:33N 18°24' W 064°34'67 9.6
2015-Jul-05 01:33N 18°09' W 063°25'10 9.7
2015-Jul-05 00:33N 18°07' W 063°15'9 9.5
2015-Jul-04 23:33N 18°05' W 063°05'0 0.1
2015-Jul-04 22:33N 18°05' W 063°05'0 0.0
2015-Jul-04 21:33N 18°05' W 063°05'0 0.0
2015-Jul-04 20:33N 18°05' W 063°05'0 0.0
2015-Jul-04 19:33N 18°05' W 063°05'0 0.0
2015-Jul-04 18:31N 18°05' W 063°05'0 0.0
2015-Jul-04 17:34N 18°05' W 063°05'6 0.7
2015-Jul-04 08:33N 17°58' W 063°05'8 7.9
2015-Jul-04 07:33N 18°05' W 063°09'3 3.1
2015-Jul-04 06:31N 18°05' W 063°06'0 0.0
2015-Jul-04 05:32N 18°05' W 063°06'0 0.0
2015-Jul-04 04:31N 18°05' W 063°06'0 0.0
2015-Jul-04 03:33N 18°05' W 063°06'0 0.0
2015-Jul-04 02:32N 18°05' W 063°06'0 0.0
2015-Jul-04 01:33N 18°05' W 063°06'0 0.0
2015-Jul-04 00:33N 18°05' W 063°06'1 0.7
2015-Jul-03 23:32N 18°05' W 063°05'0 0.0
2015-Jul-03 22:33N 18°05' W 063°05'0 0.0
2015-Jul-03 21:33N 18°05' W 063°05'0 0.0
2015-Jul-03 20:32N 18°05' W 063°05'0 0.0
2015-Jul-03 19:31N 18°05' W 063°05'5 4.8
2015-Jul-03 18:33N 18°03' W 063°09'  
Track history (hours):
 
Tides and Currents Weather Stations Pressure Air Temp Water Temp Dewpoint Dewpoint Depression Visibility Wind Speed Wind Dir Waves Ship Positions

]idnight River

Last reported at 2015-Jul-07 21:29 UTC. Time now 2015-Jul-07 21:56 UTC.
Position N 18°05' W 063°05'.

; draft 9 m.

Type: Ship. MMSI: 352319000.

Date/timePositionNaut miles runAvg speedWind from/ knotsBaromVisibWave heightAir tempDewpointWater temp
2015-Jul-07 21:29N 18°05' W 063°05'0 0.0
2015-Jul-07 20:29N 18°05' W 063°05'0 0.0
2015-Jul-07 19:33N 18°05' W 063°05'0 0.2
2015-Jul-07 18:32N 18°05' W 063°05'2 0.2
2015-Jul-07 11:24N 18°06' W 063°05'2 1.7
2015-Jul-07 10:31N 18°05' W 063°05'7 7.4
2015-Jul-07 09:33N 18°07' W 063°12'10 9.7
2015-Jul-07 08:34N 18°09' W 063°22'64 9.1
2015-Jul-07 01:27N 18°24' W 064°28'7 8.0
2015-Jul-07 00:34N 18°22' W 064°35'0 0.1
2015-Jul-06 23:33N 18°22' W 064°35'3 0.1
2015-Jul-05 08:33N 18°24' W 064°34'67 9.6
2015-Jul-05 01:33N 18°09' W 063°25'10 9.7
2015-Jul-05 00:33N 18°07' W 063°15'9 9.5
2015-Jul-04 23:33N 18°05' W 063°05'0 0.1
2015-Jul-04 22:33N 18°05' W 063°05'0 0.0
2015-Jul-04 21:33N 18°05' W 063°05'0 0.0
2015-Jul-04 20:33N 18°05' W 063°05'0 0.0
2015-Jul-04 19:33N 18°05' W 063°05'0 0.0
2015-Jul-04 18:31N 18°05' W 063°05'0 0.0
2015-Jul-04 17:34N 18°05' W 063°05'6 0.7
2015-Jul-04 08:33N 17°58' W 063°05'8 7.9
2015-Jul-04 07:33N 18°05' W 063°09'3 3.1
2015-Jul-04 06:31N 18°05' W 063°06'0 0.0
2015-Jul-04 05:32N 18°05' W 063°06'0 0.0
2015-Jul-04 04:31N 18°05' W 063°06'0 0.0
2015-Jul-04 03:33N 18°05' W 063°06'0 0.0
2015-Jul-04 02:32N 18°05' W 063°06'0 0.0
2015-Jul-04 01:33N 18°05' W 063°06'0 0.0
2015-Jul-04 00:33N 18°05' W 063°06'1 0.7
2015-Jul-03 23:32N 18°05' W 063°05'0 0.0
2015-Jul-03 22:33N 18°05' W 063°05'0 0.0
2015-Jul-03 21:33N 18°05' W 063°05'0 0.0
2015-Jul-03 20:32N 18°05' W 063°05'0 0.0
2015-Jul-03 19:31N 18°05' W 063°05'5 4.8
2015-Jul-03 18:33N 18°03' W 063°09'  

Dump ship's entire track history